This demonstration page uses our WeatherBlox Daily Observations layout. Learn more.

39.29038, -76.61219

Hourly Observations for September 2, 2016

Temp ( °F °C ) Dew Point ( °F °C ) Humidity (%) Winds ( mph kmh ) Pressure ( in mb ) Visibility ( mi km ) Precip ( " mm )
12:54 am 00:54 undefined 73 22.8 57 13.9 57 57 undefined N/A 30.01 1016 N/A 0 0
1:54 am 01:54 undefined 71 21.7 55 12.8 57 57 undefined N/A 30.01 1016 N/A 0 0
2:54 am 02:54 undefined 70 21.1 55 12.8 59 59 undefined N/A 30.01 1016 N/A 0 0
3:54 am 03:54 undefined 69 20.6 55 12.8 61 61 undefined N/A 30.01 1016 N/A 0 0
4:54 am 04:54 undefined 68 20 55 12.8 63 63 undefined N/A 30.04 1017 N/A 0 0
5:54 am 05:54 undefined 67 19.4 54 12.2 63 63 undefined N/A 30.05 1018 N/A 0 0
6:54 am 06:54 undefined 67 19.4 54 12.2 63 63 undefined N/A 30.07 1018 N/A 0 0
7:54 am 07:54 undefined 68 20 55 12.8 63 63 undefined N/A 30.08 1019 N/A 0 0
8:54 am 08:54 undefined 69 20.6 55 12.8 61 61 undefined N/A 30.09 1019 N/A 0 0
9:54 am 09:54 undefined 72 22.2 56 13.3 57 57 undefined N/A 30.1 1019 N/A 0 0
10:54 am 10:54 undefined 74 23.3 55 12.8 52 52 undefined N/A 30.12 1020 N/A 0 0
11:54 am 11:54 undefined 76 24.4 54 12.2 47 47 undefined N/A 30.11 1020 N/A 0 0
12:54 pm 12:54 undefined 77 25 54 12.2 45 45 undefined N/A 30.11 1020 N/A 0 0
1:54 pm 13:54 undefined 78 25.6 55 12.8 45 45 undefined N/A 30.1 1019 N/A 0 0
2:54 pm 14:54 undefined 78 25.6 53 11.7 42 42 undefined N/A 30.09 1019 N/A 0 0
3:54 pm 15:54 undefined 79 26.1 52 11.1 39 39 undefined N/A 30.08 1019 N/A 0 0
4:54 pm 16:54 undefined 79 26.1 54 12.2 42 42 undefined N/A 30.08 1019 N/A 0 0
7:54 pm 19:54 undefined 77 25 55 12.8 47 47 undefined N/A 30.07 1018 N/A 0 0
8:54 pm 20:54 undefined 76 24.4 57 13.9 52 52 undefined N/A 30.09 1019 N/A 0 0
9:54 pm 21:54 undefined 75 23.9 58 14.4 55 55 undefined N/A 30.1 1019 N/A 0 0
10:54 pm 22:54 undefined 73 22.8 59 15 62 62 undefined N/A 30.11 1020 N/A 0 0
11:54 pm 23:54 undefined 73 22.8 61 16.1 66 66 undefined N/A 30.11 1020 N/A 0 0

Powered by AerisWeather